createdAt,value
2018-08-12T00:00:30.525Z,5.60
2018-08-12T00:03:00.336Z,5.87
2018-08-12T00:05:32.529Z,5.53
2018-08-12T00:08:02.133Z,5.42
2018-08-12T00:10:30.853Z,6.17
2018-08-12T00:12:59.513Z,5.55
2018-08-12T00:15:28.777Z,5.92
2018-08-12T00:17:57.937Z,5.60
2018-08-12T00:20:26.734Z,5.22
2018-08-12T00:22:55.399Z,5.55
2018-08-12T00:25:25.107Z,5.65
2018-08-12T00:27:53.807Z,5.37
2018-08-12T00:30:22.605Z,5.22
2018-08-12T00:32:51.371Z,5.60
2018-08-12T00:35:20.281Z,5.12
2018-08-12T00:37:49.050Z,5.83
2018-08-12T00:40:18.149Z,5.35
2018-08-12T00:42:46.948Z,5.47
2018-08-12T00:45:19.018Z,5.22
2018-08-12T00:47:47.702Z,5.67
2018-08-12T00:50:17.639Z,5.53
2018-08-12T00:52:46.718Z,5.50
2018-08-12T00:55:17.712Z,6.08
2018-08-12T00:57:46.949Z,5.35
2018-08-12T01:00:18.473Z,5.75
2018-08-12T01:02:46.771Z,5.62
2018-08-12T01:05:16.656Z,5.55
2018-08-12T01:07:46.180Z,5.40
2018-08-12T01:10:15.872Z,6.05
2018-08-12T01:12:46.115Z,6.10
2018-08-12T01:15:17.325Z,5.50
2018-08-12T01:17:46.112Z,5.30
2018-08-12T01:20:19.433Z,5.65
2018-08-12T01:22:47.657Z,4.92
2018-08-12T01:25:16.472Z,5.28
2018-08-12T01:27:44.922Z,4.97
2018-08-12T01:30:15.724Z,5.33
2018-08-12T01:32:44.771Z,5.90
2018-08-12T01:35:13.820Z,4.90
2018-08-12T01:37:44.309Z,5.45
2018-08-12T01:40:14.074Z,5.00
2018-08-12T01:42:43.241Z,4.97
2018-08-12T01:45:14.258Z,5.12
2018-08-12T01:47:43.400Z,5.08
2018-08-12T01:50:13.700Z,5.12
2018-08-12T01:52:42.994Z,5.03
2018-08-12T01:55:11.540Z,5.37
2018-08-12T01:57:40.248Z,5.25
2018-08-12T02:00:13.248Z,5.20
2018-08-12T02:02:42.011Z,5.15
2018-08-12T02:05:10.849Z,5.20
2018-08-12T02:07:39.618Z,5.62
2018-08-12T02:10:08.911Z,5.30
2018-08-12T02:12:37.193Z,5.83
2018-08-12T02:15:08.448Z,5.03
2018-08-12T02:17:36.874Z,4.92
2018-08-12T02:20:05.917Z,5.67
2018-08-12T02:22:34.667Z,5.10
2018-08-12T02:25:03.691Z,4.67
2018-08-12T02:27:32.471Z,5.25
2018-08-12T02:30:02.101Z,5.50
2018-08-12T02:32:30.726Z,4.70
2018-08-12T02:34:59.378Z,4.85
2018-08-12T02:37:28.097Z,4.87
2018-08-12T02:39:57.931Z,5.33
2018-08-12T02:42:26.752Z,5.28
2018-08-12T02:44:55.824Z,5.10
2018-08-12T02:47:24.412Z,5.08
2018-08-12T02:49:53.061Z,5.00
2018-08-12T02:52:21.772Z,4.90
2018-08-12T02:54:51.432Z,4.92
2018-08-12T02:57:20.165Z,5.40
2018-08-12T02:59:49.931Z,5.28
2018-08-12T03:02:18.589Z,4.53
2018-08-12T03:04:47.288Z,4.67
2018-08-12T03:07:17.103Z,4.62
2018-08-12T03:09:45.936Z,5.30
2018-08-12T03:12:14.476Z,5.25
2018-08-12T03:14:43.306Z,5.08
2018-08-12T03:17:13.604Z,5.08
2018-08-12T03:19:42.691Z,5.25
2018-08-12T03:22:11.454Z,5.25
2018-08-12T03:24:40.651Z,5.75
2018-08-12T03:27:10.138Z,5.10
2018-08-12T03:29:39.843Z,5.85
2018-08-12T03:32:08.587Z,5.45
2018-08-12T03:34:37.402Z,6.42
2018-08-12T03:37:07.360Z,5.75
2018-08-12T03:39:35.786Z,6.40
2018-08-12T03:42:04.458Z,6.15
2018-08-12T03:44:33.753Z,6.40
2018-08-12T03:47:04.988Z,6.50
2018-08-12T03:49:35.100Z,6.20
2018-08-12T03:52:04.442Z,6.85
2018-08-12T03:55:58.600Z,6.90
2018-08-12T03:58:27.069Z,6.97
2018-08-12T04:00:56.121Z,7.10
2018-08-12T04:03:24.717Z,7.28
2018-08-12T04:05:53.509Z,7.40
2018-08-12T04:08:22.877Z,6.67
2018-08-12T04:10:51.143Z,7.40
2018-08-12T04:13:19.899Z,7.20
2018-08-12T04:15:48.703Z,7.05
2018-08-12T04:18:17.602Z,7.92
2018-08-12T04:20:46.343Z,7.72
2018-08-12T04:23:14.928Z,7.53
2018-08-12T04:25:43.715Z,7.25
2018-08-12T04:28:15.995Z,8.33
2018-08-12T04:30:45.175Z,7.15
2018-08-12T04:33:14.221Z,8.20
2018-08-12T04:35:43.091Z,8.80
2018-08-12T04:38:12.021Z,8.70
2018-08-12T04:40:41.322Z,8.60
2018-08-12T04:43:09.677Z,8.38
2018-08-12T04:45:38.272Z,8.00
2018-08-12T04:48:06.963Z,8.90
2018-08-12T04:50:35.648Z,9.20
2018-08-12T04:53:04.755Z,9.55
2018-08-12T04:55:33.429Z,9.00
2018-08-12T04:58:02.228Z,9.68
2018-08-12T05:00:31.078Z,8.95
2018-08-12T05:03:00.060Z,8.55
2018-08-12T05:05:28.994Z,8.70
2018-08-12T05:07:57.468Z,8.43
2018-08-12T05:10:27.349Z,8.85
2018-08-12T05:12:57.125Z,8.45
2018-08-12T05:15:25.981Z,7.60
2018-08-12T05:17:54.628Z,7.67
2018-08-12T05:20:23.520Z,7.50
2018-08-12T05:22:52.091Z,7.30
2018-08-12T05:25:22.405Z,8.25
2018-08-12T05:27:50.909Z,8.20
2018-08-12T05:30:19.965Z,8.13
2018-08-12T05:32:48.558Z,8.70
2018-08-12T05:35:17.196Z,8.28
2018-08-12T05:37:45.903Z,8.40
2018-08-12T05:40:14.752Z,8.13
2018-08-12T05:42:45.180Z,7.53
2018-08-12T05:45:15.163Z,7.37
2018-08-12T05:47:43.920Z,7.55
2018-08-12T05:50:13.033Z,6.92
2018-08-12T05:52:41.801Z,7.10
2018-08-12T05:55:11.215Z,7.17
2018-08-12T05:57:40.249Z,6.65
2018-08-12T06:00:11.285Z,6.70
2018-08-12T06:02:39.907Z,6.72
2018-08-12T06:05:08.925Z,6.78
2018-08-12T06:07:38.374Z,6.42
2018-08-12T06:10:09.008Z,6.78
2018-08-12T06:12:39.476Z,6.30
2018-08-12T06:15:09.520Z,6.30
2018-08-12T06:17:38.918Z,6.15
2018-08-12T06:20:09.497Z,6.30
2018-08-12T06:22:39.284Z,6.72
2018-08-12T06:25:08.956Z,6.42
2018-08-12T06:27:38.068Z,7.37
2018-08-12T06:30:10.056Z,7.72
2018-08-12T06:32:38.810Z,7.90
2018-08-12T06:35:08.340Z,7.40
2018-08-12T06:37:37.513Z,7.72
2018-08-12T06:40:08.986Z,8.38
2018-08-12T06:42:37.992Z,8.03
2018-08-12T06:45:08.267Z,8.40
2018-08-12T06:47:37.341Z,8.18
2018-08-12T06:50:08.452Z,8.95
2018-08-12T06:52:37.311Z,9.03
2018-08-12T06:55:06.359Z,8.48
2018-08-12T06:57:35.484Z,8.48
2018-08-12T07:00:06.389Z,8.60
2018-08-12T07:02:35.021Z,8.60
2018-08-12T07:05:04.681Z,8.28
2018-08-12T07:07:34.964Z,8.40
2018-08-12T07:10:04.609Z,7.97
2018-08-12T07:12:33.388Z,7.53
2018-08-12T07:15:02.263Z,7.25
2018-08-12T07:17:31.244Z,7.53
2018-08-12T07:19:59.993Z,7.15
2018-08-12T07:22:41.757Z,6.90
2018-08-12T07:25:11.673Z,6.92
2018-08-12T07:27:40.914Z,7.05
2018-08-12T07:30:11.954Z,6.65
2018-08-12T07:32:41.279Z,7.20
2018-08-12T07:35:13.191Z,6.95
2018-08-12T07:37:41.927Z,6.75
2018-08-12T07:40:12.857Z,7.47
2018-08-12T07:42:41.731Z,7.37
2018-08-12T07:45:12.835Z,7.40
2018-08-12T07:47:43.097Z,7.12
2018-08-12T07:50:13.196Z,7.15
2018-08-12T07:52:43.304Z,7.00
2018-08-12T07:55:13.356Z,6.58
2018-08-12T07:57:44.096Z,6.62
2018-08-12T08:00:17.585Z,6.70
2018-08-12T08:02:45.971Z,6.35
2018-08-12T08:05:14.863Z,6.25
2018-08-12T08:07:44.878Z,5.97
2018-08-12T08:10:16.140Z,4.40
2018-08-12T08:12:45.633Z,3.60
2018-08-12T08:15:19.880Z,3.50
2018-08-12T08:17:48.504Z,2.80
2018-08-12T08:20:17.764Z,2.62
2018-08-12T08:22:46.664Z,2.55
2018-08-12T08:25:16.652Z,2.30
2018-08-12T08:27:45.233Z,2.20
2018-08-12T08:30:15.615Z,2.15
2018-08-12T08:32:44.586Z,2.30
2018-08-12T08:35:13.990Z,2.10
2018-08-12T08:37:43.795Z,2.33
2018-08-12T08:40:13.766Z,2.20
2018-08-12T08:42:42.866Z,2.00
2018-08-12T08:45:16.724Z,2.30
2018-08-12T08:47:46.679Z,2.50
2018-08-12T08:50:15.974Z,2.20
2018-08-12T08:52:45.045Z,2.67
2018-08-12T08:55:15.449Z,2.27
2018-08-12T08:57:45.172Z,2.42
2018-08-12T09:00:16.842Z,2.77
2018-08-12T09:02:46.600Z,2.72
2018-08-12T09:05:15.905Z,2.37
2018-08-12T09:07:45.237Z,2.95
2018-08-12T09:10:16.135Z,2.25
2018-08-12T09:12:45.935Z,2.98
2018-08-12T09:15:17.494Z,2.65
2018-08-12T09:17:47.922Z,2.50
2018-08-12T09:20:17.764Z,2.98
2018-08-12T09:22:46.523Z,2.90
2018-08-12T09:25:15.784Z,2.58
2018-08-12T09:27:44.228Z,2.30
2018-08-12T09:30:18.060Z,2.67
2018-08-12T09:32:47.285Z,2.47
2018-08-12T09:35:15.698Z,2.80
2018-08-12T09:37:44.363Z,2.17
2018-08-12T09:40:16.628Z,2.30
2018-08-12T09:42:45.740Z,2.40
2018-08-12T09:45:17.605Z,2.55
2018-08-12T09:47:46.709Z,2.45
2018-08-12T09:50:16.756Z,2.10
2018-08-12T09:52:46.070Z,2.62
2018-08-12T09:55:14.817Z,2.27
2018-08-12T09:57:43.249Z,1.87
2018-08-12T10:00:20.436Z,2.17
2018-08-12T10:02:50.715Z,1.92
2018-08-12T10:05:20.661Z,1.85
2018-08-12T10:07:49.298Z,2.20
2018-08-12T10:10:17.920Z,2.25
2018-08-12T10:12:46.825Z,1.95
2018-08-12T10:15:16.154Z,1.75
2018-08-12T10:17:46.409Z,1.90
2018-08-12T10:20:16.151Z,1.90
2018-08-12T10:22:44.807Z,1.90
2018-08-12T10:25:13.532Z,2.12
2018-08-12T10:27:42.277Z,2.00
2018-08-12T10:30:12.335Z,1.80
2018-08-12T10:32:40.785Z,1.80
2018-08-12T10:35:11.716Z,1.60
2018-08-12T10:37:41.940Z,1.60
2018-08-12T10:40:14.069Z,1.45
2018-08-12T10:42:44.878Z,2.25
2018-08-12T10:45:15.120Z,1.55
2018-08-12T10:47:43.753Z,1.55
2018-08-12T10:50:14.697Z,1.40
2018-08-12T10:52:44.583Z,1.87
2018-08-12T10:55:14.621Z,1.75
2018-08-12T10:57:43.844Z,1.60
2018-08-12T11:00:20.073Z,1.30
2018-08-12T11:02:48.460Z,1.70
2018-08-12T11:05:17.756Z,1.40
2018-08-12T11:07:49.170Z,1.17
2018-08-12T11:10:18.000Z,1.40
2018-08-12T11:12:47.727Z,1.37
2018-08-12T11:15:16.541Z,1.42
2018-08-12T11:17:44.868Z,1.60
2018-08-12T11:20:13.871Z,1.30
2018-08-12T11:22:42.424Z,1.65
2018-08-12T11:25:11.853Z,1.42
2018-08-12T11:27:41.048Z,1.37
2018-08-12T11:30:13.414Z,1.22
2018-08-12T11:32:42.463Z,1.70
2018-08-12T11:35:14.440Z,1.40
2018-08-12T11:37:43.420Z,1.40
2018-08-12T11:40:13.658Z,1.40
2018-08-12T11:42:42.498Z,1.15
2018-08-12T11:45:13.794Z,1.30
2018-08-12T11:47:43.538Z,1.05
2018-08-12T11:50:13.560Z,1.30
2018-08-12T11:52:43.424Z,1.40
2018-08-12T11:55:18.876Z,1.50
2018-08-12T11:57:47.289Z,1.20
2018-08-12T12:00:19.747Z,1.10
2018-08-12T12:02:50.448Z,1.25
2018-08-12T12:05:19.561Z,1.25
2018-08-12T12:07:48.313Z,0.95
2018-08-12T12:10:19.132Z,1.42
2018-08-12T12:12:48.949Z,1.10
2018-08-12T12:15:18.078Z,1.00
2018-08-12T12:17:46.939Z,1.00
2018-08-12T12:20:17.523Z,1.02
2018-08-12T12:22:47.016Z,0.98
2018-08-12T12:25:17.000Z,1.02
2018-08-12T12:27:46.341Z,1.00
2018-08-12T12:30:17.605Z,1.00
2018-08-12T12:32:46.722Z,1.00
2018-08-12T12:35:15.795Z,0.90
2018-08-12T12:37:44.465Z,1.10
2018-08-12T12:40:14.930Z,0.80
2018-08-12T12:42:45.340Z,1.12
2018-08-12T12:45:14.555Z,1.07
2018-08-12T12:47:44.060Z,0.95
2018-08-12T12:50:18.487Z,1.00
2018-08-12T12:52:48.601Z,1.05
2018-08-12T12:55:18.103Z,1.10
2018-08-12T12:57:47.099Z,1.12
2018-08-12T13:00:17.396Z,1.02
2018-08-12T13:02:46.046Z,1.20
2018-08-12T13:05:15.753Z,0.93
2018-08-12T13:07:45.184Z,1.00
2018-08-12T13:10:15.163Z,1.40
2018-08-12T13:12:43.887Z,1.07
2018-08-12T13:15:13.447Z,1.00
2018-08-12T13:17:42.489Z,0.98
2018-08-12T13:20:16.368Z,0.90
2018-08-12T13:22:47.027Z,1.47
2018-08-12T13:25:17.768Z,1.47
2018-08-12T13:27:49.538Z,1.32
2018-08-12T13:30:19.176Z,1.00
2018-08-12T13:32:48.795Z,1.17
2018-08-12T13:35:18.009Z,1.10
2018-08-12T13:37:46.784Z,1.62
2018-08-12T13:40:16.783Z,1.20
2018-08-12T13:42:45.459Z,1.55
2018-08-12T13:45:14.427Z,1.27
2018-08-12T13:47:43.950Z,1.20
2018-08-12T13:50:19.157Z,1.47
2018-08-12T13:52:48.090Z,1.50
2018-08-12T13:55:17.669Z,1.25
2018-08-12T13:57:46.716Z,1.22
2018-08-12T14:00:18.016Z,1.07
2018-08-12T14:02:46.980Z,1.20
2018-08-12T14:05:16.878Z,1.07
2018-08-12T14:07:49.357Z,1.40
2018-08-12T14:10:18.264Z,1.00
2018-08-12T14:12:46.822Z,1.17
2018-08-12T14:15:17.395Z,1.10
2018-08-12T14:17:47.508Z,1.20
2018-08-12T14:20:19.069Z,0.93
2018-08-12T14:22:47.742Z,1.10
2018-08-12T14:25:16.269Z,1.10
2018-08-12T14:27:45.423Z,1.55
2018-08-12T14:30:16.175Z,1.65
2018-08-12T14:32:45.931Z,1.12
2018-08-12T14:35:14.777Z,1.40
2018-08-12T14:37:43.663Z,1.47
2018-08-12T14:40:12.810Z,1.40
2018-08-12T14:42:41.070Z,1.25
2018-08-12T14:45:11.346Z,1.62
2018-08-12T14:47:41.884Z,1.32
2018-08-12T14:50:12.837Z,1.30
2018-08-12T14:52:42.192Z,1.30
2018-08-12T14:55:11.524Z,1.62
2018-08-12T14:57:40.974Z,1.82
2018-08-12T15:00:12.783Z,1.90
2018-08-12T15:02:41.260Z,1.50
2018-08-12T15:05:09.913Z,1.50
2018-08-12T15:07:38.656Z,1.57
2018-08-12T15:10:09.005Z,1.17
2018-08-12T15:12:37.316Z,1.70
2018-08-12T15:15:07.957Z,1.42
2018-08-12T15:17:38.358Z,1.42
2018-08-12T15:20:07.096Z,1.30
2018-08-12T15:22:35.758Z,1.62
2018-08-12T15:25:06.912Z,1.72
2018-08-12T15:27:36.952Z,1.60
2018-08-12T15:30:07.037Z,1.50
2018-08-12T15:32:35.838Z,1.32
2018-08-12T15:35:06.031Z,1.60
2018-08-12T15:37:34.640Z,1.52
2018-08-12T15:40:03.328Z,1.17
2018-08-12T15:42:33.158Z,1.32
2018-08-12T15:45:01.592Z,1.60
2018-08-12T15:47:30.844Z,1.40
2018-08-12T15:50:00.219Z,1.67
2018-08-12T15:52:28.733Z,1.90
2018-08-12T15:54:58.816Z,1.37
2018-08-12T15:57:27.165Z,1.50
2018-08-12T15:59:56.432Z,1.42
2018-08-12T16:02:25.801Z,1.40
2018-08-12T16:04:54.792Z,1.50
2018-08-12T16:07:24.087Z,1.20
2018-08-12T16:09:53.125Z,1.72
2018-08-12T16:12:21.601Z,1.65
2018-08-12T16:14:50.240Z,1.40
2018-08-12T16:17:19.045Z,1.50
2018-08-12T16:19:47.728Z,1.62
2018-08-12T16:22:16.391Z,1.40
2018-08-12T16:24:46.400Z,1.85
2018-08-12T16:27:14.742Z,1.30
2018-08-12T16:29:46.222Z,1.30
2018-08-12T16:32:14.561Z,1.60
2018-08-12T16:34:43.677Z,1.80
2018-08-12T16:37:12.516Z,1.42
2018-08-12T16:39:41.450Z,1.87
2018-08-12T16:42:10.121Z,1.92
2018-08-12T16:44:38.699Z,1.80
2018-08-12T16:47:09.659Z,1.70
2018-08-12T16:49:38.329Z,1.70
2018-08-12T16:52:08.083Z,2.00
2018-08-12T16:54:37.153Z,1.98
2018-08-12T16:57:05.701Z,2.27
2018-08-12T16:59:35.641Z,1.87
2018-08-12T17:02:04.310Z,2.20
2018-08-12T17:04:33.350Z,1.90
2018-08-12T17:07:02.186Z,1.55
2018-08-12T17:09:30.838Z,1.95
2018-08-12T17:11:59.731Z,1.65
2018-08-12T17:14:28.981Z,1.92
2018-08-12T17:16:58.183Z,2.15
2018-08-12T17:19:26.903Z,1.95
2018-08-12T17:21:55.437Z,1.85
2018-08-12T17:24:24.360Z,1.77
2018-08-12T17:26:53.075Z,1.70
2018-08-12T17:29:21.706Z,1.72
2018-08-12T17:31:50.421Z,1.70
2018-08-12T17:34:20.315Z,1.90
2018-08-12T17:36:49.208Z,1.57
2018-08-12T17:39:17.910Z,1.87
2018-08-12T17:41:47.384Z,1.90
2018-08-12T17:44:16.137Z,1.98
2018-08-12T17:46:44.773Z,1.62
2018-08-12T17:49:13.460Z,1.55
2018-08-12T17:51:42.083Z,1.50
2018-08-12T17:54:11.892Z,1.50
2018-08-12T17:56:41.652Z,1.80
2018-08-12T17:59:10.602Z,1.67
2018-08-12T18:01:39.611Z,1.57
2018-08-12T18:04:08.429Z,1.60
2018-08-12T18:06:37.191Z,1.40
2018-08-12T18:09:07.189Z,1.87
2018-08-12T18:11:35.997Z,1.40
2018-08-12T18:14:04.904Z,1.70
2018-08-12T18:16:33.544Z,1.92
2018-08-12T18:19:07.912Z,1.50
2018-08-12T18:21:37.219Z,1.75
2018-08-12T18:24:05.571Z,1.80
2018-08-12T18:26:34.476Z,1.57
2018-08-12T18:29:03.133Z,1.55
2018-08-12T18:31:32.799Z,1.80
2018-08-12T18:34:01.489Z,1.45
2018-08-12T18:36:30.353Z,1.50
2018-08-12T18:38:59.141Z,1.70
2018-08-12T18:41:27.931Z,1.52
2018-08-12T18:43:56.589Z,1.75
2018-08-12T18:46:26.321Z,1.52
2018-08-12T18:48:55.166Z,2.00
2018-08-12T18:51:24.220Z,1.90
2018-08-12T18:53:52.693Z,2.02
2018-08-12T18:56:21.566Z,2.10
2018-08-12T18:58:50.356Z,2.17
2018-08-12T19:01:18.961Z,2.15
2018-08-12T19:03:48.216Z,2.10
2018-08-12T19:06:16.483Z,2.20
2018-08-12T19:08:45.894Z,2.08
2018-08-12T19:11:15.081Z,2.10
2018-08-12T19:13:44.127Z,2.22
2018-08-12T19:16:18.050Z,2.33
2018-08-12T19:18:46.296Z,2.15
2018-08-12T19:21:15.013Z,2.17
2018-08-12T19:23:44.917Z,2.60
2018-08-12T19:26:16.555Z,2.08
2018-08-12T19:28:45.250Z,2.75
2018-08-12T19:31:13.993Z,2.80
2018-08-12T19:33:43.358Z,2.80
2018-08-12T19:36:11.696Z,3.17
2018-08-12T19:38:41.333Z,3.20
2018-08-12T19:41:10.022Z,3.35
2018-08-12T19:43:38.703Z,3.15
2018-08-12T19:46:08.634Z,3.62
2018-08-12T19:48:37.288Z,2.95
2018-08-12T19:51:05.940Z,3.05
2018-08-12T19:53:34.677Z,3.67
2018-08-12T19:56:03.288Z,4.58
2018-08-12T19:58:32.634Z,4.37
2018-08-12T20:01:01.673Z,4.17
2018-08-12T20:03:30.373Z,3.90
2018-08-12T20:05:58.996Z,3.72
2018-08-12T20:08:27.562Z,3.40
2018-08-12T20:10:56.340Z,3.50
2018-08-12T20:13:26.536Z,3.45
2018-08-12T20:15:55.746Z,3.60
2018-08-12T20:18:25.918Z,2.98
2018-08-12T20:20:54.225Z,3.30
2018-08-12T20:23:24.400Z,3.08
2018-08-12T20:25:52.917Z,3.37
2018-08-12T20:28:21.780Z,3.05
2018-08-12T20:30:51.706Z,3.75
2018-08-12T20:33:20.461Z,3.70
2018-08-12T20:38:24.662Z,3.90
2018-08-12T20:40:53.199Z,3.85
2018-08-12T20:43:22.013Z,3.80
2018-08-12T20:45:52.240Z,4.47
2018-08-12T20:48:20.696Z,5.35
2018-08-12T20:50:49.144Z,4.20
2018-08-12T20:53:19.211Z,4.47
2018-08-12T20:55:48.448Z,4.35
2018-08-12T20:58:17.489Z,4.85
2018-08-12T21:00:46.616Z,4.60
2018-08-12T21:03:14.904Z,4.72
2018-08-12T21:05:43.673Z,4.92
2018-08-12T21:08:15.484Z,4.95
2018-08-12T21:10:44.306Z,4.92
2018-08-12T21:13:12.904Z,4.22
2018-08-12T21:15:44.857Z,4.70
2018-08-12T21:18:13.718Z,4.75
2018-08-12T21:20:42.437Z,5.72
2018-08-12T21:23:11.136Z,5.12
2018-08-12T21:25:39.699Z,4.80
2018-08-12T21:28:08.428Z,5.33
2018-08-12T21:30:40.719Z,4.90
2018-08-12T21:33:09.001Z,5.55
2018-08-12T21:35:38.801Z,4.90
2018-08-12T21:38:07.589Z,4.78
2018-08-12T21:40:37.285Z,4.87
2018-08-12T21:43:06.097Z,5.05
2018-08-12T21:45:34.702Z,4.33
2018-08-12T21:48:03.457Z,4.72
2018-08-12T21:50:32.365Z,5.22
2018-08-12T21:53:01.276Z,5.62
2018-08-12T21:55:29.987Z,5.22
2018-08-12T21:59:27.982Z,6.00
2018-08-12T22:01:57.294Z,4.97
2018-08-12T22:04:27.922Z,5.30
2018-08-12T22:06:56.896Z,5.78
2018-08-12T22:09:26.571Z,5.72
2018-08-12T22:11:55.074Z,6.50
2018-08-12T22:14:23.677Z,5.53
2018-08-12T22:16:52.452Z,6.37
2018-08-12T22:19:21.444Z,6.12
2018-08-12T22:21:50.240Z,6.30
2018-08-12T22:24:19.946Z,5.55
2018-08-12T22:26:49.549Z,5.53
2018-08-12T22:29:19.412Z,6.37
2018-08-12T22:31:49.174Z,6.30
2018-08-12T22:34:17.880Z,6.03
2018-08-12T22:36:46.647Z,6.03
2018-08-12T22:39:18.385Z,5.40
2018-08-12T22:41:46.776Z,5.65
2018-08-12T22:44:15.349Z,5.47
2018-08-12T22:46:44.623Z,5.92
2018-08-12T22:49:13.652Z,5.75
2018-08-12T22:51:42.367Z,6.30
2018-08-12T22:54:11.777Z,6.03
2018-08-12T22:56:40.990Z,5.75
2018-08-12T22:59:09.862Z,5.60
2018-08-12T23:01:38.566Z,6.10
2018-08-12T23:04:07.680Z,6.40
2018-08-12T23:06:35.987Z,5.92
2018-08-12T23:09:07.165Z,6.22
2018-08-12T23:13:00.861Z,6.58
2018-08-12T23:16:44.759Z,6.58
2018-08-12T23:19:13.204Z,5.30
2018-08-12T23:21:44.885Z,5.20
2018-08-12T23:24:14.101Z,4.58
2018-08-12T23:26:43.352Z,4.33
2018-08-12T23:29:12.021Z,5.30
2018-08-12T23:31:40.888Z,5.47
2018-08-12T23:34:09.547Z,5.30
2018-08-12T23:36:38.217Z,6.03
2018-08-12T23:39:08.495Z,4.90
2018-08-12T23:41:38.372Z,4.50
2018-08-12T23:44:08.201Z,4.42
2018-08-12T23:46:37.089Z,4.47
2018-08-12T23:49:06.314Z,4.70
2018-08-12T23:51:35.005Z,4.20
2018-08-12T23:54:03.771Z,4.60
2018-08-12T23:56:33.408Z,4.67
2018-08-12T23:59:02.409Z,4.37
